ヤンゴン の空港の天気 - METARとTAF

ヤンゴン国際空港 ( VYYY / RGN ) - ミャンマー ヤンゴン
飛行場実況気象(Metar)
観測時間10/01 22:30 +0630 (10/01 16:00 UTC)
風向・風速東 1m/s
視程6000m
天気現象
少しの雲 雲底高度 610m
気温25℃
湿度89%
気圧1006hPa
METARVYYY 011600Z 09002KT 6000 FEW020 25/23 Q1006 NOSIG
過去の天気等 Google飛行場航空写真 Wunderground天気予報

過去48時間のMETAR

飛行場予報(TAF)
発表時間: 10/01 17:30 +0630 (10/01 11:00 UTC)
予報対象時間: 1日18時 +0630 ~ 2日18時 +0630
風向・風速南 2m/s
視程7000m
全天の4割程度の雲 雲底高度 610m
少しの積乱雲 雲底高度 760m
全天の8割程度の雲 雲底高度 m
1日18時 +0630 ~ 2日24時 +0630 に一時的に
風向・風速南南西 3m/s
視程5000m
天気現象弱い雨
全天の4割程度の雲 雲底高度 610m
少しの積乱雲 雲底高度 760m
全天の8割程度の雲 雲底高度 3050m
TAF VYYY 011100Z 0112/0212 18004KT 7000 SCT020 FEW025CB BKN10
TEMPO 0112/0118 20005KT 5000 -RA SCT020 FEW025CB BKN100